Anchorage, Kentucky
Current Conditions -  °F | °C
As of 11:53 PM on Friday 31 Oct 2014 (Local Time) from KLOU Reporting Station
Light Snow Light Snow  
Wind Chill: 25°   Ceiling: 1200
Heat Index: 35°   Visibility: 4mi
Dew Point: 33°   Wind: 16mph
Humidity: 92%   Direction: 330°NNW
Pressure: 30.09"   Gusts: 28mph
Location:  38.2621°N, 85.5415°W
Report Text: KLOU 010353Z AUTO 33014G24KT 4SM -SN BR SCT009 OVC012 02/01 A3009 RMK AO2 RAE46SNB46 SLP192 P0003 T00170006
Loading
Personal Weather Stations






























Interactive Weather Map
Tropical Storm Tracking
New forecast layout! Learn more

10-Day Weather Forecast

Advertisements
Track Severe Weather on mobile